sensor_id;sensor_type;location;lat;lon;timestamp;P1;durP1;ratioP1;P2;durP2;ratioP2
51654;SDS011;37732;53.106;7.030;2023-07-22T00:01:27;12.35;;;8.50;;
51654;SDS011;37732;53.106;7.030;2023-07-22T00:03:54;12.93;;;8.57;;
51654;SDS011;37732;53.106;7.030;2023-07-22T00:06:21;16.27;;;9.18;;
51654;SDS011;37732;53.106;7.030;2023-07-22T00:08:46;13.93;;;8.13;;
51654;SDS011;37732;53.106;7.030;2023-07-22T00:11:12;12.13;;;8.27;;
51654;SDS011;37732;53.106;7.030;2023-07-22T00:13:38;13.15;;;8.68;;
51654;SDS011;37732;53.106;7.030;2023-07-22T00:16:04;12.63;;;8.77;;
51654;SDS011;37732;53.106;7.030;2023-07-22T00:18:33;14.20;;;9.32;;
51654;SDS011;37732;53.106;7.030;2023-07-22T00:20:59;12.90;;;8.02;;
51654;SDS011;37732;53.106;7.030;2023-07-22T00:23:26;14.20;;;8.45;;
51654;SDS011;37732;53.106;7.030;2023-07-22T00:25:51;13.40;;;8.70;;
51654;SDS011;37732;53.106;7.030;2023-07-22T00:28:17;14.10;;;8.23;;
51654;SDS011;37732;53.106;7.030;2023-07-22T00:30:44;11.98;;;8.43;;
51654;SDS011;37732;53.106;7.030;2023-07-22T00:33:10;15.02;;;9.35;;
51654;SDS011;37732;53.106;7.030;2023-07-22T00:35:36;15.30;;;9.27;;
51654;SDS011;37732;53.106;7.030;2023-07-22T00:38:02;15.32;;;9.55;;
51654;SDS011;37732;53.106;7.030;2023-07-22T00:40:29;11.77;;;7.80;;
51654;SDS011;37732;53.106;7.030;2023-07-22T00:42:57;13.93;;;8.95;;
51654;SDS011;37732;53.106;7.030;2023-07-22T00:45:24;16.60;;;9.38;;
51654;SDS011;37732;53.106;7.030;2023-07-22T00:47:50;15.38;;;9.18;;
51654;SDS011;37732;53.106;7.030;2023-07-22T00:50:16;12.95;;;8.68;;
51654;SDS011;37732;53.106;7.030;2023-07-22T00:52:42;14.55;;;9.93;;
51654;SDS011;37732;53.106;7.030;2023-07-22T00:55:08;13.15;;;8.43;;
51654;SDS011;37732;53.106;7.030;2023-07-22T00:57:34;16.42;;;8.85;;
51654;SDS011;37732;53.106;7.030;2023-07-22T01:00:01;13.60;;;8.38;;
51654;SDS011;37732;53.106;7.030;2023-07-22T01:02:27;14.05;;;9.52;;
51654;SDS011;37732;53.106;7.030;2023-07-22T01:04:52;15.07;;;8.93;;
51654;SDS011;37732;53.106;7.030;2023-07-22T01:07:18;13.60;;;8.77;;
51654;SDS011;37732;53.106;7.030;2023-07-22T01:09:44;13.43;;;8.35;;
51654;SDS011;37732;53.106;7.030;2023-07-22T01:12:10;10.77;;;7.63;;
51654;SDS011;37732;53.106;7.030;2023-07-22T01:14:37;11.90;;;7.65;;
51654;SDS011;37732;53.106;7.030;2023-07-22T01:17:04;13.10;;;7.95;;
51654;SDS011;37732;53.106;7.030;2023-07-22T01:19:32;12.82;;;8.82;;
51654;SDS011;37732;53.106;7.030;2023-07-22T01:22:00;15.32;;;9.30;;
51654;SDS011;37732;53.106;7.030;2023-07-22T01:24:28;11.93;;;7.80;;
51654;SDS011;37732;53.106;7.030;2023-07-22T01:26:54;12.35;;;8.50;;
51654;SDS011;37732;53.106;7.030;2023-07-22T01:29:21;12.35;;;7.97;;
51654;SDS011;37732;53.106;7.030;2023-07-22T01:31:51;15.15;;;8.38;;
51654;SDS011;37732;53.106;7.030;2023-07-22T01:34:18;12.10;;;7.78;;
51654;SDS011;37732;53.106;7.030;2023-07-22T01:36:45;12.13;;;8.20;;
51654;SDS011;37732;53.106;7.030;2023-07-22T01:39:13;14.27;;;8.10;;
51654;SDS011;37732;53.106;7.030;2023-07-22T01:41:44;12.27;;;8.18;;
51654;SDS011;37732;53.106;7.030;2023-07-22T01:44:10;13.30;;;8.43;;
51654;SDS011;37732;53.106;7.030;2023-07-22T01:46:38;11.57;;;7.55;;
51654;SDS011;37732;53.106;7.030;2023-07-22T01:49:04;11.80;;;8.00;;
51654;SDS011;37732;53.106;7.030;2023-07-22T01:51:36;12.30;;;7.80;;
51654;SDS011;37732;53.106;7.030;2023-07-22T01:54:03;13.00;;;7.70;;
51654;SDS011;37732;53.106;7.030;2023-07-22T01:56:30;15.10;;;8.23;;
51654;SDS011;37732;53.106;7.030;2023-07-22T01:58:57;12.05;;;7.63;;
51654;SDS011;37732;53.106;7.030;2023-07-22T02:01:22;11.07;;;7.65;;
51654;SDS011;37732;53.106;7.030;2023-07-22T02:03:49;13.55;;;8.00;;
51654;SDS011;37732;53.106;7.030;2023-07-22T02:06:15;14.65;;;7.50;;
51654;SDS011;37732;53.106;7.030;2023-07-22T02:08:41;11.95;;;7.60;;
51654;SDS011;37732;53.106;7.030;2023-07-22T02:11:07;15.50;;;7.72;;
51654;SDS011;37732;53.106;7.030;2023-07-22T02:13:36;12.52;;;7.70;;
51654;SDS011;37732;53.106;7.030;2023-07-22T02:16:02;11.65;;;7.30;;
51654;SDS011;37732;53.106;7.030;2023-07-22T02:18:28;14.57;;;7.80;;
51654;SDS011;37732;53.106;7.030;2023-07-22T02:20:54;12.57;;;7.85;;
51654;SDS011;37732;53.106;7.030;2023-07-22T02:23:21;10.00;;;7.03;;
51654;SDS011;37732;53.106;7.030;2023-07-22T02:25:52;10.48;;;7.00;;
51654;SDS011;37732;53.106;7.030;2023-07-22T02:28:19;12.07;;;6.88;;
51654;SDS011;37732;53.106;7.030;2023-07-22T02:30:51;12.00;;;8.10;;
51654;SDS011;37732;53.106;7.030;2023-07-22T02:33:18;11.20;;;6.82;;
51654;SDS011;37732;53.106;7.030;2023-07-22T02:35:46;13.07;;;7.30;;
51654;SDS011;37732;53.106;7.030;2023-07-22T02:38:13;12.82;;;7.47;;
51654;SDS011;37732;53.106;7.030;2023-07-22T02:40:39;11.57;;;7.50;;
51654;SDS011;37732;53.106;7.030;2023-07-22T02:43:05;12.50;;;8.50;;
51654;SDS011;37732;53.106;7.030;2023-07-22T02:45:32;11.77;;;8.30;;
51654;SDS011;37732;53.106;7.030;2023-07-22T02:47:59;12.68;;;7.35;;
51654;SDS011;37732;53.106;7.030;2023-07-22T02:50:26;10.50;;;6.82;;
51654;SDS011;37732;53.106;7.030;2023-07-22T02:52:51;9.05;;;6.78;;
51654;SDS011;37732;53.106;7.030;2023-07-22T02:55:17;12.18;;;7.53;;
51654;SDS011;37732;53.106;7.030;2023-07-22T02:57:44;14.02;;;7.82;;
51654;SDS011;37732;53.106;7.030;2023-07-22T03:00:14;12.13;;;7.65;;
51654;SDS011;37732;53.106;7.030;2023-07-22T03:02:51;19.17;;;8.75;;
51654;SDS011;37732;53.106;7.030;2023-07-22T03:05:18;15.90;;;10.07;;
51654;SDS011;37732;53.106;7.030;2023-07-22T03:07:44;15.65;;;8.70;;
51654;SDS011;37732;53.106;7.030;2023-07-22T03:10:09;13.32;;;10.35;;
51654;SDS011;37732;53.106;7.030;2023-07-22T03:12:36;15.18;;;8.75;;
51654;SDS011;37732;53.106;7.030;2023-07-22T03:15:02;12.25;;;8.68;;
51654;SDS011;37732;53.106;7.030;2023-07-22T03:17:34;14.45;;;8.95;;
51654;SDS011;37732;53.106;7.030;2023-07-22T03:20:02;15.65;;;9.77;;
51654;SDS011;37732;53.106;7.030;2023-07-22T03:22:42;15.13;;;9.65;;
51654;SDS011;37732;53.106;7.030;2023-07-22T03:25:09;15.43;;;8.95;;
51654;SDS011;37732;53.106;7.030;2023-07-22T03:27:37;14.77;;;9.00;;
51654;SDS011;37732;53.106;7.030;2023-07-22T03:30:03;15.18;;;8.85;;
51654;SDS011;37732;53.106;7.030;2023-07-22T03:32:32;14.95;;;9.93;;
51654;SDS011;37732;53.106;7.030;2023-07-22T03:34:59;13.43;;;9.13;;
51654;SDS011;37732;53.106;7.030;2023-07-22T03:37:26;12.07;;;8.60;;
51654;SDS011;37732;53.106;7.030;2023-07-22T03:39:53;13.73;;;9.15;;
51654;SDS011;37732;53.106;7.030;2023-07-22T03:42:19;13.30;;;9.32;;
51654;SDS011;37732;53.106;7.030;2023-07-22T03:44:46;14.55;;;9.00;;
51654;SDS011;37732;53.106;7.030;2023-07-22T03:47:11;15.60;;;10.13;;
51654;SDS011;37732;53.106;7.030;2023-07-22T03:49:38;16.20;;;11.07;;
51654;SDS011;37732;53.106;7.030;2023-07-22T03:52:04;18.40;;;10.73;;
51654;SDS011;37732;53.106;7.030;2023-07-22T03:54:30;15.75;;;10.52;;
51654;SDS011;37732;53.106;7.030;2023-07-22T03:56:56;19.30;;;11.00;;
51654;SDS011;37732;53.106;7.030;2023-07-22T03:59:22;14.25;;;10.15;;
51654;SDS011;37732;53.106;7.030;2023-07-22T04:01:47;15.30;;;11.10;;
51654;SDS011;37732;53.106;7.030;2023-07-22T04:04:13;15.93;;;10.65;;
51654;SDS011;37732;53.106;7.030;2023-07-22T04:06:40;15.70;;;10.25;;
51654;SDS011;37732;53.106;7.030;2023-07-22T04:09:05;16.02;;;10.40;;
51654;SDS011;37732;53.106;7.030;2023-07-22T04:11:32;13.68;;;9.85;;
51654;SDS011;37732;53.106;7.030;2023-07-22T04:13:58;15.55;;;10.73;;
51654;SDS011;37732;53.106;7.030;2023-07-22T04:16:23;14.75;;;10.20;;
51654;SDS011;37732;53.106;7.030;2023-07-22T04:18:49;15.18;;;10.52;;
51654;SDS011;37732;53.106;7.030;2023-07-22T04:21:15;12.27;;;9.07;;
51654;SDS011;37732;53.106;7.030;2023-07-22T04:23:41;13.68;;;9.50;;
51654;SDS011;37732;53.106;7.030;2023-07-22T04:26:06;16.58;;;10.25;;
51654;SDS011;37732;53.106;7.030;2023-07-22T04:28:35;16.95;;;10.88;;
51654;SDS011;37732;53.106;7.030;2023-07-22T04:31:00;16.52;;;10.93;;
51654;SDS011;37732;53.106;7.030;2023-07-22T04:33:26;14.00;;;9.65;;
51654;SDS011;37732;53.106;7.030;2023-07-22T04:35:57;16.42;;;10.23;;
51654;SDS011;37732;53.106;7.030;2023-07-22T04:38:24;15.13;;;10.63;;
51654;SDS011;37732;53.106;7.030;2023-07-22T04:40:50;18.52;;;12.10;;
51654;SDS011;37732;53.106;7.030;2023-07-22T04:43:16;15.15;;;10.80;;
51654;SDS011;37732;53.106;7.030;2023-07-22T04:45:45;18.77;;;12.10;;
51654;SDS011;37732;53.106;7.030;2023-07-22T04:48:19;19.27;;;12.45;;
51654;SDS011;37732;53.106;7.030;2023-07-22T04:50:47;17.90;;;11.20;;
51654;SDS011;37732;53.106;7.030;2023-07-22T04:53:13;16.35;;;11.60;;
51654;SDS011;37732;53.106;7.030;2023-07-22T04:55:39;17.27;;;11.60;;
51654;SDS011;37732;53.106;7.030;2023-07-22T04:58:06;14.48;;;10.65;;
51654;SDS011;37732;53.106;7.030;2023-07-22T05:00:31;15.23;;;10.07;;
51654;SDS011;37732;53.106;7.030;2023-07-22T05:02:58;16.83;;;11.10;;
51654;SDS011;37732;53.106;7.030;2023-07-22T05:05:24;18.92;;;12.30;;
51654;SDS011;37732;53.106;7.030;2023-07-22T05:07:50;17.30;;;12.05;;
51654;SDS011;37732;53.106;7.030;2023-07-22T05:10:17;19.63;;;12.65;;
51654;SDS011;37732;53.106;7.030;2023-07-22T05:12:44;18.83;;;11.80;;
51654;SDS011;37732;53.106;7.030;2023-07-22T05:15:10;15.38;;;11.85;;
51654;SDS011;37732;53.106;7.030;2023-07-22T05:17:37;16.70;;;11.60;;
51654;SDS011;37732;53.106;7.030;2023-07-22T05:20:03;16.15;;;11.27;;
51654;SDS011;37732;53.106;7.030;2023-07-22T05:22:36;19.35;;;11.93;;
51654;SDS011;37732;53.106;7.030;2023-07-22T05:25:03;19.50;;;12.45;;
51654;SDS011;37732;53.106;7.030;2023-07-22T05:27:30;15.30;;;12.32;;
51654;SDS011;37732;53.106;7.030;2023-07-22T05:29:56;18.00;;;11.63;;
51654;SDS011;37732;53.106;7.030;2023-07-22T05:32:22;16.25;;;11.68;;
51654;SDS011;37732;53.106;7.030;2023-07-22T05:34:48;20.42;;;13.75;;
51654;SDS011;37732;53.106;7.030;2023-07-22T05:37:15;17.02;;;12.55;;
51654;SDS011;37732;53.106;7.030;2023-07-22T05:39:40;19.58;;;13.55;;
51654;SDS011;37732;53.106;7.030;2023-07-22T05:42:06;17.45;;;13.10;;
51654;SDS011;37732;53.106;7.030;2023-07-22T05:44:32;19.38;;;13.20;;
51654;SDS011;37732;53.106;7.030;2023-07-22T05:46:58;21.85;;;12.88;;
51654;SDS011;37732;53.106;7.030;2023-07-22T05:49:28;18.45;;;12.40;;
51654;SDS011;37732;53.106;7.030;2023-07-22T05:51:54;17.70;;;12.23;;
51654;SDS011;37732;53.106;7.030;2023-07-22T05:54:20;18.45;;;12.40;;
51654;SDS011;37732;53.106;7.030;2023-07-22T05:56:46;18.73;;;13.13;;
51654;SDS011;37732;53.106;7.030;2023-07-22T05:59:12;17.83;;;12.48;;
51654;SDS011;37732;53.106;7.030;2023-07-22T06:01:38;20.02;;;12.85;;
51654;SDS011;37732;53.106;7.030;2023-07-22T06:04:06;19.23;;;13.15;;
51654;SDS011;37732;53.106;7.030;2023-07-22T06:06:32;18.45;;;13.50;;
51654;SDS011;37732;53.106;7.030;2023-07-22T06:08:57;19.02;;;12.32;;
51654;SDS011;37732;53.106;7.030;2023-07-22T06:11:24;18.00;;;13.05;;
51654;SDS011;37732;53.106;7.030;2023-07-22T06:13:50;19.15;;;12.60;;
51654;SDS011;37732;53.106;7.030;2023-07-22T06:16:17;21.05;;;12.60;;
51654;SDS011;37732;53.106;7.030;2023-07-22T06:18:42;17.55;;;12.45;;
51654;SDS011;37732;53.106;7.030;2023-07-22T06:21:08;18.08;;;13.10;;
51654;SDS011;37732;53.106;7.030;2023-07-22T06:23:34;16.25;;;12.43;;
51654;SDS011;37732;53.106;7.030;2023-07-22T06:26:00;20.83;;;13.95;;
51654;SDS011;37732;53.106;7.030;2023-07-22T06:28:27;17.70;;;12.13;;
51654;SDS011;37732;53.106;7.030;2023-07-22T06:30:53;20.67;;;13.57;;
51654;SDS011;37732;53.106;7.030;2023-07-22T06:33:18;18.20;;;12.85;;
51654;SDS011;37732;53.106;7.030;2023-07-22T06:35:44;17.75;;;12.70;;
51654;SDS011;37732;53.106;7.030;2023-07-22T06:38:10;17.38;;;11.80;;
51654;SDS011;37732;53.106;7.030;2023-07-22T06:40:35;18.52;;;13.48;;
51654;SDS011;37732;53.106;7.030;2023-07-22T06:43:02;14.95;;;11.43;;
51654;SDS011;37732;53.106;7.030;2023-07-22T06:45:27;18.48;;;12.30;;
51654;SDS011;37732;53.106;7.030;2023-07-22T06:47:53;15.70;;;11.43;;
51654;SDS011;37732;53.106;7.030;2023-07-22T06:50:19;18.73;;;12.45;;
51654;SDS011;37732;53.106;7.030;2023-07-22T06:52:44;15.73;;;11.27;;
51654;SDS011;37732;53.106;7.030;2023-07-22T06:55:11;15.10;;;11.65;;
51654;SDS011;37732;53.106;7.030;2023-07-22T06:57:37;15.48;;;11.60;;
51654;SDS011;37732;53.106;7.030;2023-07-22T07:00:03;15.75;;;11.60;;
51654;SDS011;37732;53.106;7.030;2023-07-22T07:02:30;15.85;;;11.35;;
51654;SDS011;37732;53.106;7.030;2023-07-22T07:04:57;16.58;;;11.50;;
51654;SDS011;37732;53.106;7.030;2023-07-22T07:07:22;15.05;;;11.25;;
51654;SDS011;37732;53.106;7.030;2023-07-22T07:09:48;13.77;;;11.25;;
51654;SDS011;37732;53.106;7.030;2023-07-22T07:12:15;13.70;;;10.45;;
51654;SDS011;37732;53.106;7.030;2023-07-22T07:14:42;15.10;;;10.80;;
51654;SDS011;37732;53.106;7.030;2023-07-22T07:17:08;13.77;;;10.75;;
51654;SDS011;37732;53.106;7.030;2023-07-22T07:19:34;15.38;;;10.60;;
51654;SDS011;37732;53.106;7.030;2023-07-22T07:22:00;13.50;;;10.13;;
51654;SDS011;37732;53.106;7.030;2023-07-22T07:24:26;17.65;;;10.73;;
51654;SDS011;37732;53.106;7.030;2023-07-22T07:26:52;11.75;;;9.07;;
51654;SDS011;37732;53.106;7.030;2023-07-22T07:29:18;14.75;;;9.70;;
51654;SDS011;37732;53.106;7.030;2023-07-22T07:31:44;15.35;;;10.27;;
51654;SDS011;37732;53.106;7.030;2023-07-22T07:34:10;13.35;;;10.02;;
51654;SDS011;37732;53.106;7.030;2023-07-22T07:36:35;13.75;;;9.32;;
51654;SDS011;37732;53.106;7.030;2023-07-22T07:39:02;15.63;;;10.77;;
51654;SDS011;37732;53.106;7.030;2023-07-22T07:41:28;12.73;;;9.73;;
51654;SDS011;37732;53.106;7.030;2023-07-22T07:43:54;11.25;;;8.75;;
51654;SDS011;37732;53.106;7.030;2023-07-22T07:46:24;14.35;;;10.90;;
51654;SDS011;37732;53.106;7.030;2023-07-22T07:48:53;12.40;;;9.85;;
51654;SDS011;37732;53.106;7.030;2023-07-22T07:51:26;13.32;;;9.77;;
51654;SDS011;37732;53.106;7.030;2023-07-22T07:53:53;12.90;;;9.98;;
51654;SDS011;37732;53.106;7.030;2023-07-22T07:56:20;12.00;;;9.98;;
51654;SDS011;37732;53.106;7.030;2023-07-22T07:58:47;15.20;;;9.88;;
51654;SDS011;37732;53.106;7.030;2023-07-22T08:01:14;14.75;;;10.93;;
51654;SDS011;37732;53.106;7.030;2023-07-22T08:03:41;13.60;;;10.18;;
51654;SDS011;37732;53.106;7.030;2023-07-22T08:06:09;11.88;;;8.93;;
51654;SDS011;37732;53.106;7.030;2023-07-22T08:08:36;12.48;;;10.45;;
51654;SDS011;37732;53.106;7.030;2023-07-22T08:13:32;13.32;;;9.48;;
51654;SDS011;37732;53.106;7.030;2023-07-22T08:16:02;12.73;;;10.02;;
51654;SDS011;37732;53.106;7.030;2023-07-22T08:18:30;13.52;;;9.85;;
51654;SDS011;37732;53.106;7.030;2023-07-22T08:20:56;13.10;;;9.88;;
51654;SDS011;37732;53.106;7.030;2023-07-22T08:23:22;13.30;;;9.43;;
51654;SDS011;37732;53.106;7.030;2023-07-22T08:25:48;11.00;;;9.18;;
51654;SDS011;37732;53.106;7.030;2023-07-22T08:28:16;14.27;;;9.85;;
51654;SDS011;37732;53.106;7.030;2023-07-22T08:30:42;12.15;;;9.25;;
51654;SDS011;37732;53.106;7.030;2023-07-22T08:33:09;14.07;;;10.38;;
51654;SDS011;37732;53.106;7.030;2023-07-22T08:35:36;12.40;;;9.52;;
51654;SDS011;37732;53.106;7.030;2023-07-22T08:38:04;12.43;;;9.27;;
51654;SDS011;37732;53.106;7.030;2023-07-22T08:40:37;13.00;;;9.82;;
51654;SDS011;37732;53.106;7.030;2023-07-22T08:43:05;12.05;;;10.25;;
51654;SDS011;37732;53.106;7.030;2023-07-22T08:45:33;16.27;;;10.48;;
51654;SDS011;37732;53.106;7.030;2023-07-22T08:48:06;13.70;;;10.07;;
51654;SDS011;37732;53.106;7.030;2023-07-22T08:50:45;12.35;;;8.27;;
51654;SDS011;37732;53.106;7.030;2023-07-22T08:53:14;10.10;;;8.07;;
51654;SDS011;37732;53.106;7.030;2023-07-22T08:55:41;12.02;;;8.13;;
51654;SDS011;37732;53.106;7.030;2023-07-22T08:58:08;11.65;;;8.98;;
51654;SDS011;37732;53.106;7.030;2023-07-22T09:00:36;10.85;;;8.32;;
51654;SDS011;37732;53.106;7.030;2023-07-22T09:03:03;10.93;;;7.95;;
51654;SDS011;37732;53.106;7.030;2023-07-22T09:05:31;9.07;;;7.18;;
51654;SDS011;37732;53.106;7.030;2023-07-22T09:07:59;9.05;;;7.38;;
51654;SDS011;37732;53.106;7.030;2023-07-22T09:10:28;11.13;;;7.93;;
51654;SDS011;37732;53.106;7.030;2023-07-22T09:12:54;9.63;;;7.88;;
51654;SDS011;37732;53.106;7.030;2023-07-22T09:15:21;10.80;;;7.75;;
51654;SDS011;37732;53.106;7.030;2023-07-22T09:17:48;10.18;;;7.68;;
51654;SDS011;37732;53.106;7.030;2023-07-22T09:20:15;9.02;;;6.75;;
51654;SDS011;37732;53.106;7.030;2023-07-22T09:22:51;8.98;;;6.82;;
51654;SDS011;37732;53.106;7.030;2023-07-22T09:25:21;11.05;;;7.35;;
51654;SDS011;37732;53.106;7.030;2023-07-22T09:27:47;8.75;;;6.82;;
51654;SDS011;37732;53.106;7.030;2023-07-22T09:30:25;8.05;;;6.63;;
51654;SDS011;37732;53.106;7.030;2023-07-22T09:32:57;10.15;;;7.18;;
51654;SDS011;37732;53.106;7.030;2023-07-22T09:35:46;11.63;;;7.78;;
51654;SDS011;37732;53.106;7.030;2023-07-22T09:38:12;12.10;;;9.32;;
51654;SDS011;37732;53.106;7.030;2023-07-22T09:40:39;15.85;;;9.45;;
51654;SDS011;37732;53.106;7.030;2023-07-22T09:43:09;10.82;;;9.13;;
51654;SDS011;37732;53.106;7.030;2023-07-22T09:45:40;11.30;;;8.65;;
51654;SDS011;37732;53.106;7.030;2023-07-22T09:48:05;12.18;;;8.05;;
51654;SDS011;37732;53.106;7.030;2023-07-22T09:50:35;10.65;;;7.72;;
51654;SDS011;37732;53.106;7.030;2023-07-22T09:53:02;11.32;;;8.57;;
51654;SDS011;37732;53.106;7.030;2023-07-22T09:55:29;11.48;;;8.35;;
51654;SDS011;37732;53.106;7.030;2023-07-22T09:58:00;10.50;;;8.05;;
51654;SDS011;37732;53.106;7.030;2023-07-22T10:00:34;12.60;;;8.35;;
51654;SDS011;37732;53.106;7.030;2023-07-22T10:03:02;15.07;;;9.18;;
51654;SDS011;37732;53.106;7.030;2023-07-22T10:05:34;13.75;;;8.55;;
51654;SDS011;37732;53.106;7.030;2023-07-22T10:08:01;10.73;;;8.70;;
51654;SDS011;37732;53.106;7.030;2023-07-22T10:10:35;10.65;;;8.30;;
51654;SDS011;37732;53.106;7.030;2023-07-22T10:13:02;13.27;;;9.57;;
51654;SDS011;37732;53.106;7.030;2023-07-22T10:15:30;12.38;;;9.38;;
51654;SDS011;37732;53.106;7.030;2023-07-22T10:18:01;12.55;;;9.13;;
51654;SDS011;37732;53.106;7.030;2023-07-22T10:20:28;11.55;;;9.30;;
51654;SDS011;37732;53.106;7.030;2023-07-22T10:22:55;12.00;;;8.10;;
51654;SDS011;37732;53.106;7.030;2023-07-22T10:25:21;14.38;;;9.38;;
51654;SDS011;37732;53.106;7.030;2023-07-22T10:27:48;10.57;;;8.02;;
51654;SDS011;37732;53.106;7.030;2023-07-22T10:30:16;10.15;;;7.90;;
51654;SDS011;37732;53.106;7.030;2023-07-22T10:32:45;8.82;;;6.78;;
51654;SDS011;37732;53.106;7.030;2023-07-22T10:35:16;9.80;;;7.05;;
51654;SDS011;37732;53.106;7.030;2023-07-22T10:37:44;10.40;;;7.25;;
51654;SDS011;37732;53.106;7.030;2023-07-22T10:40:18;10.43;;;6.43;;
51654;SDS011;37732;53.106;7.030;2023-07-22T10:43:06;12.35;;;7.13;;
51654;SDS011;37732;53.106;7.030;2023-07-22T10:45:32;9.63;;;6.25;;
51654;SDS011;37732;53.106;7.030;2023-07-22T10:48:08;8.23;;;6.35;;
51654;SDS011;37732;53.106;7.030;2023-07-22T10:50:39;8.60;;;6.55;;
51654;SDS011;37732;53.106;7.030;2023-07-22T11:14:52;11.77;;;6.25;;
51654;SDS011;37732;53.106;7.030;2023-07-22T11:17:28;9.75;;;5.85;;
51654;SDS011;37732;53.106;7.030;2023-07-22T11:19:56;10.13;;;7.28;;
51654;SDS011;37732;53.106;7.030;2023-07-22T11:22:22;8.85;;;6.45;;
51654;SDS011;37732;53.106;7.030;2023-07-22T11:24:49;9.32;;;6.57;;
51654;SDS011;37732;53.106;7.030;2023-07-22T11:27:15;7.60;;;6.07;;
51654;SDS011;37732;53.106;7.030;2023-07-22T11:29:40;8.75;;;5.97;;
51654;SDS011;37732;53.106;7.030;2023-07-22T11:32:14;13.50;;;7.00;;
51654;SDS011;37732;53.106;7.030;2023-07-22T11:34:46;8.25;;;6.50;;
51654;SDS011;37732;53.106;7.030;2023-07-22T11:37:12;10.27;;;6.47;;
51654;SDS011;37732;53.106;7.030;2023-07-22T11:39:39;8.10;;;5.75;;
51654;SDS011;37732;53.106;7.030;2023-07-22T11:42:06;9.85;;;6.63;;
51654;SDS011;37732;53.106;7.030;2023-07-22T11:44:32;10.40;;;6.40;;
51654;SDS011;37732;53.106;7.030;2023-07-22T11:46:59;9.90;;;6.63;;
51654;SDS011;37732;53.106;7.030;2023-07-22T11:49:31;8.73;;;6.45;;
51654;SDS011;37732;53.106;7.030;2023-07-22T11:51:59;9.80;;;6.40;;
51654;SDS011;37732;53.106;7.030;2023-07-22T11:54:28;10.27;;;7.22;;
51654;SDS011;37732;53.106;7.030;2023-07-22T11:56:55;9.98;;;7.07;;
51654;SDS011;37732;53.106;7.030;2023-07-22T11:59:34;8.43;;;6.85;;
51654;SDS011;37732;53.106;7.030;2023-07-22T12:04:32;10.60;;;7.50;;
51654;SDS011;37732;53.106;7.030;2023-07-22T12:06:59;8.88;;;7.25;;
51654;SDS011;37732;53.106;7.030;2023-07-22T12:09:26;10.40;;;7.72;;
51654;SDS011;37732;53.106;7.030;2023-07-22T12:11:56;10.93;;;7.30;;
51654;SDS011;37732;53.106;7.030;2023-07-22T12:14:24;14.20;;;9.15;;
51654;SDS011;37732;53.106;7.030;2023-07-22T12:16:57;9.07;;;8.05;;
51654;SDS011;37732;53.106;7.030;2023-07-22T12:19:23;12.48;;;9.10;;
51654;SDS011;37732;53.106;7.030;2023-07-22T12:21:49;10.70;;;8.45;;
51654;SDS011;37732;53.106;7.030;2023-07-22T12:24:15;11.25;;;8.77;;
51654;SDS011;37732;53.106;7.030;2023-07-22T12:26:41;9.90;;;8.75;;
51654;SDS011;37732;53.106;7.030;2023-07-22T12:29:07;12.65;;;9.40;;
51654;SDS011;37732;53.106;7.030;2023-07-22T12:31:34;11.32;;;10.13;;
51654;SDS011;37732;53.106;7.030;2023-07-22T12:34:00;10.90;;;9.63;;
51654;SDS011;37732;53.106;7.030;2023-07-22T12:36:25;14.60;;;10.50;;
51654;SDS011;37732;53.106;7.030;2023-07-22T12:38:51;11.23;;;9.13;;
51654;SDS011;37732;53.106;7.030;2023-07-22T12:41:17;13.00;;;11.18;;
51654;SDS011;37732;53.106;7.030;2023-07-22T12:43:42;12.45;;;10.65;;
51654;SDS011;37732;53.106;7.030;2023-07-22T12:46:09;10.80;;;9.48;;
51654;SDS011;37732;53.106;7.030;2023-07-22T12:48:35;11.48;;;10.20;;
51654;SDS011;37732;53.106;7.030;2023-07-22T12:51:00;10.70;;;9.45;;
51654;SDS011;37732;53.106;7.030;2023-07-22T12:53:26;10.63;;;9.35;;
51654;SDS011;37732;53.106;7.030;2023-07-22T12:55:52;10.23;;;9.20;;
51654;SDS011;37732;53.106;7.030;2023-07-22T12:58:19;8.85;;;7.70;;
51654;SDS011;37732;53.106;7.030;2023-07-22T13:00:45;9.38;;;7.38;;
51654;SDS011;37732;53.106;7.030;2023-07-22T13:03:12;7.68;;;6.82;;
51654;SDS011;37732;53.106;7.030;2023-07-22T13:05:39;7.80;;;7.00;;
51654;SDS011;37732;53.106;7.030;2023-07-22T13:08:05;9.48;;;7.50;;
51654;SDS011;37732;53.106;7.030;2023-07-22T13:10:31;10.38;;;8.13;;
51654;SDS011;37732;53.106;7.030;2023-07-22T13:13:00;7.47;;;6.68;;
51654;SDS011;37732;53.106;7.030;2023-07-22T13:15:26;9.40;;;7.55;;
51654;SDS011;37732;53.106;7.030;2023-07-22T13:17:52;9.02;;;8.13;;
51654;SDS011;37732;53.106;7.030;2023-07-22T13:20:18;10.73;;;8.55;;
51654;SDS011;37732;53.106;7.030;2023-07-22T13:22:43;9.68;;;7.68;;
51654;SDS011;37732;53.106;7.030;2023-07-22T13:25:09;11.93;;;8.23;;
51654;SDS011;37732;53.106;7.030;2023-07-22T13:27:35;10.55;;;8.23;;
51654;SDS011;37732;53.106;7.030;2023-07-22T13:30:03;9.32;;;8.20;;
51654;SDS011;37732;53.106;7.030;2023-07-22T13:32:32;12.50;;;9.43;;
51654;SDS011;37732;53.106;7.030;2023-07-22T13:34:57;9.90;;;8.40;;
51654;SDS011;37732;53.106;7.030;2023-07-22T13:37:23;11.23;;;9.25;;
51654;SDS011;37732;53.106;7.030;2023-07-22T13:39:50;10.80;;;9.70;;
51654;SDS011;37732;53.106;7.030;2023-07-22T13:42:16;11.32;;;9.50;;
51654;SDS011;37732;53.106;7.030;2023-07-22T13:44:42;11.10;;;10.00;;
51654;SDS011;37732;53.106;7.030;2023-07-22T13:47:07;10.18;;;9.07;;
51654;SDS011;37732;53.106;7.030;2023-07-22T13:49:34;12.40;;;9.32;;
51654;SDS011;37732;53.106;7.030;2023-07-22T13:51:59;10.68;;;9.57;;
51654;SDS011;37732;53.106;7.030;2023-07-22T13:54:25;10.10;;;8.20;;
51654;SDS011;37732;53.106;7.030;2023-07-22T13:56:51;10.75;;;9.65;;
51654;SDS011;37732;53.106;7.030;2023-07-22T13:59:16;9.90;;;8.88;;
51654;SDS011;37732;53.106;7.030;2023-07-22T14:01:42;10.80;;;8.55;;
51654;SDS011;37732;53.106;7.030;2023-07-22T14:04:08;11.38;;;10.23;;
51654;SDS011;37732;53.106;7.030;2023-07-22T14:06:34;9.57;;;7.90;;
51654;SDS011;37732;53.106;7.030;2023-07-22T14:09:00;12.70;;;9.45;;
51654;SDS011;37732;53.106;7.030;2023-07-22T14:11:26;10.93;;;9.52;;
51654;SDS011;37732;53.106;7.030;2023-07-22T14:13:52;13.18;;;9.85;;
51654;SDS011;37732;53.106;7.030;2023-07-22T14:16:19;9.52;;;8.43;;
51654;SDS011;37732;53.106;7.030;2023-07-22T14:18:44;9.50;;;8.13;;
51654;SDS011;37732;53.106;7.030;2023-07-22T14:21:11;10.32;;;8.45;;
51654;SDS011;37732;53.106;7.030;2023-07-22T14:23:37;10.45;;;9.05;;
51654;SDS011;37732;53.106;7.030;2023-07-22T14:26:03;11.48;;;9.25;;
51654;SDS011;37732;53.106;7.030;2023-07-22T14:28:29;9.23;;;8.32;;
51654;SDS011;37732;53.106;7.030;2023-07-22T14:30:54;10.00;;;8.57;;
51654;SDS011;37732;53.106;7.030;2023-07-22T14:33:21;10.32;;;8.43;;
51654;SDS011;37732;53.106;7.030;2023-07-22T14:35:46;9.02;;;8.13;;
51654;SDS011;37732;53.106;7.030;2023-07-22T14:38:12;9.60;;;6.90;;
51654;SDS011;37732;53.106;7.030;2023-07-22T14:40:40;10.00;;;6.82;;
51654;SDS011;37732;53.106;7.030;2023-07-22T14:43:06;7.93;;;6.88;;
51654;SDS011;37732;53.106;7.030;2023-07-22T14:45:33;7.15;;;6.20;;
51654;SDS011;37732;53.106;7.030;2023-07-22T14:47:58;8.32;;;5.78;;
51654;SDS011;37732;53.106;7.030;2023-07-22T14:50:25;7.97;;;5.82;;
51654;SDS011;37732;53.106;7.030;2023-07-22T14:52:51;7.43;;;5.35;;
51654;SDS011;37732;53.106;7.030;2023-07-22T14:55:17;9.57;;;5.90;;
51654;SDS011;37732;53.106;7.030;2023-07-22T14:57:43;6.28;;;5.35;;
51654;SDS011;37732;53.106;7.030;2023-07-22T15:00:10;7.25;;;5.43;;